sensor_id;sensor_type;location;lat;lon;timestamp;pressure;altitude;pressure_sealevel;temperature;humidity
35023;BME280;21214;44.912;8.204;2024-02-21T00:00:29;100550.09;;;6.49;100.00
35023;BME280;21214;44.912;8.204;2024-02-21T00:02:55;100538.94;;;6.17;100.00
35023;BME280;21214;44.912;8.204;2024-02-21T00:05:21;100544.47;;;6.27;100.00
35023;BME280;21214;44.912;8.204;2024-02-21T00:07:46;100538.94;;;6.17;100.00
35023;BME280;21214;44.912;8.204;2024-02-21T00:10:12;100535.75;;;6.26;100.00
35023;BME280;21214;44.912;8.204;2024-02-21T00:12:37;100534.25;;;6.36;100.00
35023;BME280;21214;44.912;8.204;2024-02-21T00:15:03;100527.03;;;6.11;100.00
35023;BME280;21214;44.912;8.204;2024-02-21T00:17:28;100527.88;;;6.12;100.00
35023;BME280;21214;44.912;8.204;2024-02-21T00:19:55;100528.63;;;6.14;100.00
35023;BME280;21214;44.912;8.204;2024-02-21T00:22:21;100527.31;;;6.21;100.00
35023;BME280;21214;44.912;8.204;2024-02-21T00:24:46;100531.63;;;6.22;100.00
35023;BME280;21214;44.912;8.204;2024-02-21T00:27:12;100523.84;;;6.21;100.00
35023;BME280;21214;44.912;8.204;2024-02-21T00:29:37;100526.19;;;6.25;100.00
35023;BME280;21214;44.912;8.204;2024-02-21T00:32:03;100523.84;;;6.21;100.00
35023;BME280;21214;44.912;8.204;2024-02-21T00:34:29;100513.00;;;6.27;100.00
35023;BME280;21214;44.912;8.204;2024-02-21T00:36:54;100516.19;;;6.32;100.00
35023;BME280;21214;44.912;8.204;2024-02-21T00:39:20;100507.41;;;6.33;100.00
35023;BME280;21214;44.912;8.204;2024-02-21T00:41:45;100510.38;;;6.27;100.00
35023;BME280;21214;44.912;8.204;2024-02-21T00:44:11;100515.78;;;6.09;100.00
35023;BME280;21214;44.912;8.204;2024-02-21T00:46:36;100511.97;;;5.85;100.00
35023;BME280;21214;44.912;8.204;2024-02-21T00:49:04;100510.59;;;5.64;100.00
35023;BME280;21214;44.912;8.204;2024-02-21T00:51:29;100518.59;;;5.47;100.00
35023;BME280;21214;44.912;8.204;2024-02-21T00:53:55;100511.06;;;5.41;100.00
35023;BME280;21214;44.912;8.204;2024-02-21T00:56:20;100512.78;;;5.42;100.00
35023;BME280;21214;44.912;8.204;2024-02-21T00:58:46;100528.97;;;5.32;100.00
35023;BME280;21214;44.912;8.204;2024-02-21T01:01:12;100529.06;;;5.47;100.00
35023;BME280;21214;44.912;8.204;2024-02-21T01:03:39;100536.38;;;5.56;100.00
35023;BME280;21214;44.912;8.204;2024-02-21T01:06:05;100536.38;;;5.56;100.00
35023;BME280;21214;44.912;8.204;2024-02-21T01:08:31;100529.28;;;5.58;100.00
35023;BME280;21214;44.912;8.204;2024-02-21T01:10:57;100529.44;;;5.55;100.00
35023;BME280;21214;44.912;8.204;2024-02-21T01:13:22;100537.91;;;5.44;100.00
35023;BME280;21214;44.912;8.204;2024-02-21T01:15:48;100543.81;;;5.32;100.00
35023;BME280;21214;44.912;8.204;2024-02-21T01:18:14;100544.00;;;5.13;100.00
35023;BME280;21214;44.912;8.204;2024-02-21T01:20:39;100544.84;;;4.98;100.00
35023;BME280;21214;44.912;8.204;2024-02-21T01:23:05;100547.94;;;4.89;100.00
35023;BME280;21214;44.912;8.204;2024-02-21T01:25:30;100545.69;;;4.83;100.00
35023;BME280;21214;44.912;8.204;2024-02-21T01:27:56;100544.31;;;4.76;100.00
35023;BME280;21214;44.912;8.204;2024-02-21T01:30:21;100536.47;;;4.76;100.00
35023;BME280;21214;44.912;8.204;2024-02-21T01:32:47;100535.38;;;4.80;100.00
35023;BME280;21214;44.912;8.204;2024-02-21T01:35:12;100538.44;;;4.88;100.00
35023;BME280;21214;44.912;8.204;2024-02-21T01:37:38;100539.63;;;4.98;100.00
35023;BME280;21214;44.912;8.204;2024-02-21T01:40:05;100541.56;;;5.10;100.00
35023;BME280;21214;44.912;8.204;2024-02-21T01:42:30;100544.50;;;5.20;100.00
35023;BME280;21214;44.912;8.204;2024-02-21T01:44:56;100542.31;;;5.28;100.00
35023;BME280;21214;44.912;8.204;2024-02-21T01:47:21;100540.63;;;5.27;100.00
35023;BME280;21214;44.912;8.204;2024-02-21T01:49:47;100534.22;;;5.32;100.00
35023;BME280;21214;44.912;8.204;2024-02-21T01:52:14;100535.47;;;5.41;100.00
35023;BME280;21214;44.912;8.204;2024-02-21T01:54:41;100531.09;;;5.42;100.00
35023;BME280;21214;44.912;8.204;2024-02-21T01:57:07;100533.53;;;5.45;100.00
35023;BME280;21214;44.912;8.204;2024-02-21T01:59:33;100532.84;;;5.41;100.00
35023;BME280;21214;44.912;8.204;2024-02-21T02:02:00;100532.34;;;5.34;100.00
35023;BME280;21214;44.912;8.204;2024-02-21T02:04:26;100533.00;;;5.38;100.00
35023;BME280;21214;44.912;8.204;2024-02-21T02:06:54;100526.34;;;5.32;100.00
35023;BME280;21214;44.912;8.204;2024-02-21T02:09:20;100529.16;;;5.14;100.00
35023;BME280;21214;44.912;8.204;2024-02-21T02:11:46;100521.38;;;4.97;100.00
35023;BME280;21214;44.912;8.204;2024-02-21T02:14:12;100519.03;;;4.92;100.00
35023;BME280;21214;44.912;8.204;2024-02-21T02:16:37;100519.16;;;4.89;100.00
35023;BME280;21214;44.912;8.204;2024-02-21T02:19:03;100528.63;;;4.76;100.00
35023;BME280;21214;44.912;8.204;2024-02-21T02:21:39;100522.75;;;4.88;100.00
35023;BME280;21214;44.912;8.204;2024-02-21T02:24:06;100524.16;;;4.78;100.00
35023;BME280;21214;44.912;8.204;2024-02-21T02:26:32;100529.63;;;4.73;100.00
35023;BME280;21214;44.912;8.204;2024-02-21T02:28:57;100521.97;;;4.70;100.00
35023;BME280;21214;44.912;8.204;2024-02-21T02:31:23;100527.59;;;4.63;100.00
35023;BME280;21214;44.912;8.204;2024-02-21T02:33:48;100533.66;;;4.63;100.00
35023;BME280;21214;44.912;8.204;2024-02-21T02:36:14;100532.50;;;4.69;100.00
35023;BME280;21214;44.912;8.204;2024-02-21T02:38:39;100524.38;;;4.58;100.00
35023;BME280;21214;44.912;8.204;2024-02-21T02:41:05;100522.19;;;4.66;100.00
35023;BME280;21214;44.912;8.204;2024-02-21T02:43:31;100528.44;;;4.79;100.00
35023;BME280;21214;44.912;8.204;2024-02-21T02:45:56;100526.19;;;4.88;100.00
35023;BME280;21214;44.912;8.204;2024-02-21T02:48:22;100526.09;;;4.90;100.00
35023;BME280;21214;44.912;8.204;2024-02-21T02:50:48;100525.91;;;4.77;100.00
35023;BME280;21214;44.912;8.204;2024-02-21T02:53:15;100517.97;;;4.63;100.00
35023;BME280;21214;44.912;8.204;2024-02-21T02:55:40;100512.03;;;4.44;100.00
35023;BME280;21214;44.912;8.204;2024-02-21T02:58:06;100504.91;;;4.30;100.00
35023;BME280;21214;44.912;8.204;2024-02-21T03:00:31;100503.78;;;4.51;100.00
35023;BME280;21214;44.912;8.204;2024-02-21T03:03:01;100498.91;;;4.61;100.00
35023;BME280;21214;44.912;8.204;2024-02-21T03:05:30;100499.59;;;4.65;100.00
35023;BME280;21214;44.912;8.204;2024-02-21T03:07:56;100497.59;;;4.70;100.00
35023;BME280;21214;44.912;8.204;2024-02-21T03:10:21;100495.72;;;4.72;100.00
35023;BME280;21214;44.912;8.204;2024-02-21T03:12:47;100495.72;;;4.72;100.00
35023;BME280;21214;44.912;8.204;2024-02-21T03:15:14;100493.03;;;4.73;100.00
35023;BME280;21214;44.912;8.204;2024-02-21T03:17:40;100494.88;;;4.71;100.00
35023;BME280;21214;44.912;8.204;2024-02-21T03:20:06;100495.22;;;4.65;100.00
35023;BME280;21214;44.912;8.204;2024-02-21T03:22:35;100487.78;;;4.58;100.00
35023;BME280;21214;44.912;8.204;2024-02-21T03:25:01;100485.06;;;4.43;100.00
35023;BME280;21214;44.912;8.204;2024-02-21T03:27:27;100476.63;;;4.38;100.00
35023;BME280;21214;44.912;8.204;2024-02-21T03:29:52;100487.38;;;4.32;100.00
35023;BME280;21214;44.912;8.204;2024-02-21T03:32:18;100501.25;;;4.17;100.00
35023;BME280;21214;44.912;8.204;2024-02-21T03:34:43;100502.94;;;4.01;100.00
35023;BME280;21214;44.912;8.204;2024-02-21T03:37:09;100500.34;;;3.84;100.00
35023;BME280;21214;44.912;8.204;2024-02-21T03:39:34;100505.69;;;3.65;100.00
35023;BME280;21214;44.912;8.204;2024-02-21T03:42:00;100510.91;;;3.65;100.00
35023;BME280;21214;44.912;8.204;2024-02-21T03:44:30;100507.19;;;3.69;100.00
35023;BME280;21214;44.912;8.204;2024-02-21T03:46:56;100516.94;;;3.65;100.00
35023;BME280;21214;44.912;8.204;2024-02-21T03:49:22;100512.72;;;3.63;100.00
35023;BME280;21214;44.912;8.204;2024-02-21T03:51:47;100510.19;;;3.61;100.00
35023;BME280;21214;44.912;8.204;2024-02-21T03:54:13;100505.88;;;3.60;100.00
35023;BME280;21214;44.912;8.204;2024-02-21T03:56:38;100515.09;;;3.67;100.00
35023;BME280;21214;44.912;8.204;2024-02-21T03:59:06;100504.34;;;3.74;100.00
35023;BME280;21214;44.912;8.204;2024-02-21T04:01:31;100508.59;;;3.76;100.00
35023;BME280;21214;44.912;8.204;2024-02-21T04:03:57;100502.22;;;3.82;100.00
35023;BME280;21214;44.912;8.204;2024-02-21T04:06:22;100514.34;;;3.83;100.00
35023;BME280;21214;44.912;8.204;2024-02-21T04:08:48;100509.44;;;3.77;100.00
35023;BME280;21214;44.912;8.204;2024-02-21T04:11:13;100519.34;;;3.70;100.00
35023;BME280;21214;44.912;8.204;2024-02-21T04:13:38;100528.75;;;3.72;100.00
35023;BME280;21214;44.912;8.204;2024-02-21T04:16:04;100526.94;;;3.57;100.00
35023;BME280;21214;44.912;8.204;2024-02-21T04:18:31;100530.63;;;3.70;100.00
35023;BME280;21214;44.912;8.204;2024-02-21T04:20:56;100528.88;;;3.71;100.00
35023;BME280;21214;44.912;8.204;2024-02-21T04:23:22;100527.25;;;3.68;100.00
35023;BME280;21214;44.912;8.204;2024-02-21T04:25:47;100538.47;;;3.70;100.00
35023;BME280;21214;44.912;8.204;2024-02-21T04:28:12;100535.84;;;3.70;100.00
35023;BME280;21214;44.912;8.204;2024-02-21T04:30:38;100527.81;;;3.39;100.00
35023;BME280;21214;44.912;8.204;2024-02-21T04:33:03;100528.75;;;3.55;100.00
35023;BME280;21214;44.912;8.204;2024-02-21T04:35:29;100537.19;;;3.60;100.00
35023;BME280;21214;44.912;8.204;2024-02-21T04:37:55;100538.53;;;3.69;100.00
35023;BME280;21214;44.912;8.204;2024-02-21T04:40:20;100535.69;;;3.74;100.00
35023;BME280;21214;44.912;8.204;2024-02-21T04:42:45;100524.47;;;3.71;100.00
35023;BME280;21214;44.912;8.204;2024-02-21T04:45:11;100523.09;;;3.64;100.00
35023;BME280;21214;44.912;8.204;2024-02-21T04:47:36;100521.84;;;3.71;100.00
35023;BME280;21214;44.912;8.204;2024-02-21T04:50:02;100532.16;;;3.75;100.00
35023;BME280;21214;44.912;8.204;2024-02-21T04:52:28;100533.75;;;3.77;100.00
35023;BME280;21214;44.912;8.204;2024-02-21T04:54:53;100534.59;;;3.60;100.00
35023;BME280;21214;44.912;8.204;2024-02-21T04:57:18;100535.78;;;3.36;100.00
35023;BME280;21214;44.912;8.204;2024-02-21T04:59:44;100541.88;;;3.18;100.00
35023;BME280;21214;44.912;8.204;2024-02-21T05:02:10;100543.13;;;3.28;100.00
35023;BME280;21214;44.912;8.204;2024-02-21T05:04:36;100546.63;;;3.46;100.00
35023;BME280;21214;44.912;8.204;2024-02-21T05:07:04;100556.34;;;3.42;100.00
35023;BME280;21214;44.912;8.204;2024-02-21T05:09:29;100544.25;;;3.41;100.00
35023;BME280;21214;44.912;8.204;2024-02-21T05:11:54;100544.94;;;3.45;100.00
35023;BME280;21214;44.912;8.204;2024-02-21T05:14:20;100544.56;;;3.52;100.00
35023;BME280;21214;44.912;8.204;2024-02-21T05:16:45;100545.69;;;3.11;100.00
35023;BME280;21214;44.912;8.204;2024-02-21T05:19:11;100549.88;;;3.32;100.00
35023;BME280;21214;44.912;8.204;2024-02-21T05:21:36;100554.81;;;3.38;100.00
35023;BME280;21214;44.912;8.204;2024-02-21T05:24:02;100566.94;;;3.39;100.00
35023;BME280;21214;44.912;8.204;2024-02-21T05:26:27;100578.66;;;3.30;100.00
35023;BME280;21214;44.912;8.204;2024-02-21T05:28:53;100577.91;;;3.28;100.00
35023;BME280;21214;44.912;8.204;2024-02-21T05:31:19;100586.69;;;3.26;100.00
35023;BME280;21214;44.912;8.204;2024-02-21T05:33:45;100581.47;;;3.26;100.00
35023;BME280;21214;44.912;8.204;2024-02-21T05:36:14;100572.19;;;3.20;100.00
35023;BME280;21214;44.912;8.204;2024-02-21T05:38:39;100577.28;;;3.23;100.00
35023;BME280;21214;44.912;8.204;2024-02-21T05:41:05;100568.44;;;3.26;100.00
35023;BME280;21214;44.912;8.204;2024-02-21T05:43:31;100565.56;;;3.13;100.00
35023;BME280;21214;44.912;8.204;2024-02-21T05:45:57;100574.72;;;3.03;100.00
35023;BME280;21214;44.912;8.204;2024-02-21T05:48:23;100573.03;;;3.21;100.00
35023;BME280;21214;44.912;8.204;2024-02-21T05:50:49;100563.59;;;3.00;100.00
35023;BME280;21214;44.912;8.204;2024-02-21T05:53:14;100557.38;;;2.83;100.00
35023;BME280;21214;44.912;8.204;2024-02-21T05:55:40;100549.78;;;2.79;100.00
35023;BME280;21214;44.912;8.204;2024-02-21T05:58:06;100542.41;;;2.88;100.00
35023;BME280;21214;44.912;8.204;2024-02-21T06:00:34;100535.69;;;3.02;100.00
35023;BME280;21214;44.912;8.204;2024-02-21T06:03:00;100530.97;;;3.10;100.00
35023;BME280;21214;44.912;8.204;2024-02-21T06:05:25;100530.44;;;3.20;100.00
35023;BME280;21214;44.912;8.204;2024-02-21T06:07:51;100538.06;;;3.25;100.00
35023;BME280;21214;44.912;8.204;2024-02-21T06:10:16;100535.88;;;3.35;100.00
35023;BME280;21214;44.912;8.204;2024-02-21T06:12:42;100546.13;;;3.38;100.00
35023;BME280;21214;44.912;8.204;2024-02-21T06:15:08;100543.41;;;3.41;100.00
35023;BME280;21214;44.912;8.204;2024-02-21T06:17:33;100551.00;;;3.45;100.00
35023;BME280;21214;44.912;8.204;2024-02-21T06:19:59;100567.44;;;3.47;100.00
35023;BME280;21214;44.912;8.204;2024-02-21T06:22:24;100575.69;;;3.38;100.00
35023;BME280;21214;44.912;8.204;2024-02-21T06:24:50;100577.69;;;3.33;100.00
35023;BME280;21214;44.912;8.204;2024-02-21T06:27:16;100570.63;;;3.35;100.00
35023;BME280;21214;44.912;8.204;2024-02-21T06:29:43;100561.72;;;3.39;100.00
35023;BME280;21214;44.912;8.204;2024-02-21T06:32:08;100571.03;;;3.45;100.00
35023;BME280;21214;44.912;8.204;2024-02-21T06:34:34;100574.97;;;3.53;100.00
35023;BME280;21214;44.912;8.204;2024-02-21T06:36:59;100570.56;;;3.54;100.00
35023;BME280;21214;44.912;8.204;2024-02-21T06:39:25;100570.22;;;3.61;100.00
35023;BME280;21214;44.912;8.204;2024-02-21T06:41:50;100580.19;;;3.53;100.00
35023;BME280;21214;44.912;8.204;2024-02-21T06:44:17;100580.50;;;3.47;100.00
35023;BME280;21214;44.912;8.204;2024-02-21T06:46:42;100577.72;;;3.50;100.00
35023;BME280;21214;44.912;8.204;2024-02-21T06:49:08;100566.19;;;3.54;100.00
35023;BME280;21214;44.912;8.204;2024-02-21T06:51:33;100575.50;;;3.60;100.00
35023;BME280;21214;44.912;8.204;2024-02-21T06:54:00;100578.84;;;3.45;100.00
35023;BME280;21214;44.912;8.204;2024-02-21T06:56:25;100589.19;;;3.65;100.00
35023;BME280;21214;44.912;8.204;2024-02-21T06:58:55;100587.97;;;3.72;100.00
35023;BME280;21214;44.912;8.204;2024-02-21T07:01:20;100595.72;;;3.74;100.00
35023;BME280;21214;44.912;8.204;2024-02-21T07:03:46;100595.44;;;3.80;100.00
35023;BME280;21214;44.912;8.204;2024-02-21T07:06:12;100599.41;;;3.69;100.00
35023;BME280;21214;44.912;8.204;2024-02-21T07:08:38;100597.91;;;3.83;100.00
35023;BME280;21214;44.912;8.204;2024-02-21T07:11:04;100611.56;;;3.88;100.00
35023;BME280;21214;44.912;8.204;2024-02-21T07:13:30;100616.50;;;3.94;100.00
35023;BME280;21214;44.912;8.204;2024-02-21T07:15:56;100611.28;;;3.94;100.00
35023;BME280;21214;44.912;8.204;2024-02-21T07:18:21;100607.88;;;3.92;100.00
35023;BME280;21214;44.912;8.204;2024-02-21T07:20:46;100625.19;;;3.94;100.00
35023;BME280;21214;44.912;8.204;2024-02-21T07:23:12;100627.06;;;3.91;100.00
35023;BME280;21214;44.912;8.204;2024-02-21T07:25:38;100625.78;;;3.82;100.00
35023;BME280;21214;44.912;8.204;2024-02-21T07:28:05;100630.16;;;3.82;100.00
35023;BME280;21214;44.912;8.204;2024-02-21T07:30:30;100631.75;;;3.84;100.00
35023;BME280;21214;44.912;8.204;2024-02-21T07:32:56;100636.94;;;4.03;100.00
35023;BME280;21214;44.912;8.204;2024-02-21T07:35:21;100641.41;;;4.18;100.00
35023;BME280;21214;44.912;8.204;2024-02-21T07:37:47;100635.41;;;4.33;100.00
35023;BME280;21214;44.912;8.204;2024-02-21T07:40:13;100648.47;;;4.50;100.00
35023;BME280;21214;44.912;8.204;2024-02-21T07:42:39;100646.22;;;4.43;100.00
35023;BME280;21214;44.912;8.204;2024-02-21T07:45:05;100645.25;;;4.11;100.00
35023;BME280;21214;44.912;8.204;2024-02-21T07:47:31;100643.25;;;4.16;100.00
35023;BME280;21214;44.912;8.204;2024-02-21T07:49:56;100642.78;;;4.42;100.00
35023;BME280;21214;44.912;8.204;2024-02-21T07:52:22;100640.91;;;4.62;100.00
35023;BME280;21214;44.912;8.204;2024-02-21T07:54:47;100635.97;;;4.73;100.00
35023;BME280;21214;44.912;8.204;2024-02-21T07:57:13;100632.78;;;4.50;100.00
35023;BME280;21214;44.912;8.204;2024-02-21T07:59:38;100627.72;;;4.65;100.00
35023;BME280;21214;44.912;8.204;2024-02-21T08:02:03;100634.72;;;4.64;100.00
35023;BME280;21214;44.912;8.204;2024-02-21T08:04:32;100633.00;;;4.63;100.00
35023;BME280;21214;44.912;8.204;2024-02-21T08:06:58;100639.31;;;4.76;100.00
35023;BME280;21214;44.912;8.204;2024-02-21T08:09:28;100651.25;;;4.98;100.00
35023;BME280;21214;44.912;8.204;2024-02-21T08:11:54;100637.97;;;4.85;100.00
35023;BME280;21214;44.912;8.204;2024-02-21T08:14:20;100640.56;;;5.18;100.00
35023;BME280;21214;44.912;8.204;2024-02-21T08:16:46;100634.31;;;5.20;100.00
35023;BME280;21214;44.912;8.204;2024-02-21T08:19:11;100627.25;;;5.38;100.00
35023;BME280;21214;44.912;8.204;2024-02-21T08:21:37;100630.47;;;5.59;100.00
35023;BME280;21214;44.912;8.204;2024-02-21T08:24:02;100630.13;;;5.65;100.00
35023;BME280;21214;44.912;8.204;2024-02-21T08:26:28;100629.84;;;5.85;100.00
35023;BME280;21214;44.912;8.204;2024-02-21T08:28:56;100618.75;;;6.11;100.00
35023;BME280;21214;44.912;8.204;2024-02-21T08:31:25;100624.91;;;6.40;100.00
35023;BME280;21214;44.912;8.204;2024-02-21T08:33:57;100628.22;;;6.58;100.00
35023;BME280;21214;44.912;8.204;2024-02-21T08:36:28;100629.00;;;6.74;100.00
35023;BME280;21214;44.912;8.204;2024-02-21T08:38:54;100639.50;;;6.88;100.00
35023;BME280;21214;44.912;8.204;2024-02-21T08:41:20;100630.22;;;6.97;100.00
35023;BME280;21214;44.912;8.204;2024-02-21T08:43:48;100629.75;;;6.90;100.00
35023;BME280;21214;44.912;8.204;2024-02-21T08:46:14;100633.59;;;6.99;100.00
35023;BME280;21214;44.912;8.204;2024-02-21T08:48:39;100636.13;;;7.01;100.00
35023;BME280;21214;44.912;8.204;2024-02-21T08:51:05;100630.09;;;7.27;100.00
35023;BME280;21214;44.912;8.204;2024-02-21T08:53:30;100631.50;;;7.47;100.00
35023;BME280;21214;44.912;8.204;2024-02-21T08:55:56;100630.59;;;7.60;100.00
35023;BME280;21214;44.912;8.204;2024-02-21T08:58:22;100632.13;;;7.64;100.00
35023;BME280;21214;44.912;8.204;2024-02-21T09:00:49;100628.97;;;7.72;100.00
35023;BME280;21214;44.912;8.204;2024-02-21T09:03:16;100640.31;;;7.72;100.00
35023;BME280;21214;44.912;8.204;2024-02-21T09:05:46;100637.84;;;7.83;100.00
35023;BME280;21214;44.912;8.204;2024-02-21T09:08:12;100635.56;;;7.92;100.00
35023;BME280;21214;44.912;8.204;2024-02-21T09:10:37;100630.69;;;8.00;100.00
35023;BME280;21214;44.912;8.204;2024-02-21T09:13:03;100634.16;;;8.13;100.00
35023;BME280;21214;44.912;8.204;2024-02-21T09:15:29;100623.91;;;8.22;100.00
35023;BME280;21214;44.912;8.204;2024-02-21T09:17:54;100632.56;;;8.37;100.00
35023;BME280;21214;44.912;8.204;2024-02-21T09:20:19;100622.06;;;8.50;100.00
35023;BME280;21214;44.912;8.204;2024-02-21T09:22:45;100618.50;;;8.51;100.00
35023;BME280;21214;44.912;8.204;2024-02-21T09:25:10;100623.03;;;8.61;100.00
35023;BME280;21214;44.912;8.204;2024-02-21T09:27:38;100621.25;;;8.75;100.00
35023;BME280;21214;44.912;8.204;2024-02-21T09:30:05;100615.66;;;8.67;100.00
35023;BME280;21214;44.912;8.204;2024-02-21T09:32:31;100614.31;;;8.86;100.00
35023;BME280;21214;44.912;8.204;2024-02-21T09:34:58;100616.00;;;9.00;100.00
35023;BME280;21214;44.912;8.204;2024-02-21T09:37:23;100617.25;;;9.07;100.00
35023;BME280;21214;44.912;8.204;2024-02-21T09:39:49;100606.47;;;9.10;100.00
35023;BME280;21214;44.912;8.204;2024-02-21T09:42:20;100607.75;;;9.17;100.00
35023;BME280;21214;44.912;8.204;2024-02-21T09:44:48;100611.41;;;9.27;100.00
35023;BME280;21214;44.912;8.204;2024-02-21T09:47:32;100609.59;;;9.40;100.00
35023;BME280;21214;44.912;8.204;2024-02-21T09:50:00;100608.91;;;9.50;100.00
35023;BME280;21214;44.912;8.204;2024-02-21T09:52:26;100601.75;;;9.52;100.00
35023;BME280;21214;44.912;8.204;2024-02-21T09:54:53;100603.19;;;9.56;100.00
35023;BME280;21214;44.912;8.204;2024-02-21T09:57:20;100603.00;;;9.59;100.00
35023;BME280;21214;44.912;8.204;2024-02-21T09:59:45;100604.25;;;9.66;100.00
35023;BME280;21214;44.912;8.204;2024-02-21T10:02:11;100599.97;;;9.76;100.00
35023;BME280;21214;44.912;8.204;2024-02-21T10:04:39;100592.97;;;9.88;100.00
35023;BME280;21214;44.912;8.204;2024-02-21T10:07:05;100601.13;;;9.96;100.00
35023;BME280;21214;44.912;8.204;2024-02-21T10:09:31;100602.81;;;9.97;100.00
35023;BME280;21214;44.912;8.204;2024-02-21T10:12:11;100605.13;;;10.01;100.00
35023;BME280;21214;44.912;8.204;2024-02-21T10:14:37;100607.63;;;10.03;100.00
35023;BME280;21214;44.912;8.204;2024-02-21T10:17:02;100615.19;;;10.07;100.00
35023;BME280;21214;44.912;8.204;2024-02-21T10:19:30;100613.28;;;10.09;100.00
35023;BME280;21214;44.912;8.204;2024-02-21T10:22:07;100599.75;;;10.14;100.00
35023;BME280;21214;44.912;8.204;2024-02-21T10:24:34;100602.28;;;10.15;100.00
35023;BME280;21214;44.912;8.204;2024-02-21T10:27:07;100599.22;;;10.21;100.00
35023;BME280;21214;44.912;8.204;2024-02-21T10:29:39;100603.09;;;10.29;100.00
35023;BME280;21214;44.912;8.204;2024-02-21T10:34:31;100593.91;;;10.45;100.00
35023;BME280;21214;44.912;8.204;2024-02-21T10:37:04;100594.28;;;10.52;100.00
35023;BME280;21214;44.912;8.204;2024-02-21T10:39:32;100601.72;;;10.58;100.00
35023;BME280;21214;44.912;8.204;2024-02-21T10:42:00;100600.31;;;10.65;100.00
35023;BME280;21214;44.912;8.204;2024-02-21T10:44:29;100594.56;;;10.71;100.00
35023;BME280;21214;44.912;8.204;2024-02-21T10:46:56;100596.72;;;10.77;100.00
35023;BME280;21214;44.912;8.204;2024-02-21T10:49:29;100596.94;;;10.85;100.00
35023;BME280;21214;44.912;8.204;2024-02-21T10:55:10;100582.78;;;11.08;100.00
35023;BME280;21214;44.912;8.204;2024-02-21T10:57:40;100582.44;;;11.13;100.00
35023;BME280;21214;44.912;8.204;2024-02-21T11:00:07;100580.63;;;11.25;100.00
35023;BME280;21214;44.912;8.204;2024-02-21T11:02:35;100571.38;;;11.30;100.00
35023;BME280;21214;44.912;8.204;2024-02-21T11:05:02;100567.84;;;11.41;100.00
35023;BME280;21214;44.912;8.204;2024-02-21T11:07:29;100553.19;;;11.48;100.00
35023;BME280;21214;44.912;8.204;2024-02-21T11:09:57;100550.50;;;11.59;100.00
35023;BME280;21214;44.912;8.204;2024-02-21T11:12:24;100548.06;;;11.67;100.00
35023;BME280;21214;44.912;8.204;2024-02-21T11:14:51;100538.94;;;11.71;100.00
35023;BME280;21214;44.912;8.204;2024-02-21T11:17:19;100535.31;;;11.83;100.00
35023;BME280;21214;44.912;8.204;2024-02-21T11:19:51;100523.00;;;11.94;100.00
35023;BME280;21214;44.912;8.204;2024-02-21T11:22:19;100519.56;;;12.03;100.00
35023;BME280;21214;44.912;8.204;2024-02-21T11:24:45;100516.03;;;12.13;100.00
35023;BME280;21214;44.912;8.204;2024-02-21T11:27:14;100511.31;;;12.17;100.00
35023;BME280;21214;44.912;8.204;2024-02-21T11:29:44;100496.97;;;12.19;100.00
35023;BME280;21214;44.912;8.204;2024-02-21T11:32:10;100495.03;;;12.21;100.00
35023;BME280;21214;44.912;8.204;2024-02-21T11:34:37;100500.94;;;12.25;98.64
35023;BME280;21214;44.912;8.204;2024-02-21T11:37:13;100486.47;;;12.29;93.02
35023;BME280;21214;44.912;8.204;2024-02-21T11:39:40;100487.88;;;12.33;90.43
35023;BME280;21214;44.912;8.204;2024-02-21T11:42:07;100483.97;;;12.37;91.05
35023;BME280;21214;44.912;8.204;2024-02-21T11:44:34;100481.94;;;12.41;90.79
35023;BME280;21214;44.912;8.204;2024-02-21T11:47:00;100474.84;;;12.51;92.69
35023;BME280;21214;44.912;8.204;2024-02-21T11:49:26;100476.56;;;12.61;93.34
35023;BME280;21214;44.912;8.204;2024-02-21T11:52:01;100474.09;;;12.69;91.98
35023;BME280;21214;44.912;8.204;2024-02-21T11:54:30;100470.38;;;12.82;91.70
35023;BME280;21214;44.912;8.204;2024-02-21T11:56:55;100473.63;;;12.95;91.33
35023;BME280;21214;44.912;8.204;2024-02-21T11:59:21;100463.59;;;13.08;89.90
35023;BME280;21214;44.912;8.204;2024-02-21T12:01:47;100462.53;;;13.20;89.79
35023;BME280;21214;44.912;8.204;2024-02-21T12:04:13;100454.91;;;13.36;89.43
35023;BME280;21214;44.912;8.204;2024-02-21T12:06:39;100453.91;;;13.57;89.94
35023;BME280;21214;44.912;8.204;2024-02-21T12:09:07;100449.44;;;13.67;87.95
35023;BME280;21214;44.912;8.204;2024-02-21T12:11:34;100447.06;;;13.73;86.41
35023;BME280;21214;44.912;8.204;2024-02-21T12:14:01;100442.44;;;13.85;87.29
35023;BME280;21214;44.912;8.204;2024-02-21T12:16:29;100436.28;;;13.94;87.13
35023;BME280;21214;44.912;8.204;2024-02-21T12:18:56;100439.34;;;13.99;87.81
35023;BME280;21214;44.912;8.204;2024-02-21T12:21:32;100428.72;;;13.99;87.99
35023;BME280;21214;44.912;8.204;2024-02-21T12:24:00;100430.09;;;14.03;87.00
35023;BME280;21214;44.912;8.204;2024-02-21T12:26:25;100415.16;;;14.02;85.61
35023;BME280;21214;44.912;8.204;2024-02-21T12:28:53;100407.19;;;14.12;87.38
35023;BME280;21214;44.912;8.204;2024-02-21T12:31:20;100400.41;;;14.27;87.46
35023;BME280;21214;44.912;8.204;2024-02-21T12:33:46;100398.72;;;14.35;87.18
35023;BME280;21214;44.912;8.204;2024-02-21T12:36:12;100391.19;;;14.41;85.48
35023;BME280;21214;44.912;8.204;2024-02-21T12:38:37;100396.88;;;14.46;82.91
35023;BME280;21214;44.912;8.204;2024-02-21T12:41:03;100377.41;;;14.55;83.28
35023;BME280;21214;44.912;8.204;2024-02-21T12:43:29;100376.53;;;14.64;82.95
35023;BME280;21214;44.912;8.204;2024-02-21T12:45:54;100374.94;;;14.71;82.96
35023;BME280;21214;44.912;8.204;2024-02-21T12:48:19;100373.38;;;14.78;82.23